Time;durP1;ratioP1;P1;durP2;ratioP2;P2;SDS_P1;SDS_P2;PMS_P1;PMS_P2;Temp;Humidity;BMP_temperature;BMP_pressure;BME280_temperature;BME280_humidity;BME280_pressure;Samples;Min_cycle;Max_cycle;Signal;HPM_P1;HPM_P2
2022/03/03 00:00:25;;;;;;;30.75;17.85;;;;;;;;;;4943955;28;91258;-80
2022/03/03 00:02:51;;;;;;;28.80;17.88;;;;;;;;;;4962903;28;91223;-81
2022/03/03 00:05:19;;;;;;;31.80;19.20;;;;;;;;;;4960150;28;90492;-82
2022/03/03 00:07:45;;;;;;;30.45;18.17;;;;;;;;;;4943502;28;94165;-82
2022/03/03 00:10:11;;;;;;;28.95;18.27;;;;;;;;;;4960024;28;93120;-79
2022/03/03 00:12:41;;;;;;;30.33;17.98;;;;;;;;;;4958762;28;92336;-80
2022/03/03 00:15:07;;;;;;;31.05;18.35;;;;;;;;;;4961570;28;93427;-81
2022/03/03 00:17:34;;;;;;;32.35;19.17;;;;;;;;;;4961580;28;93012;-78
2022/03/03 00:20:01;;;;;;;39.05;20.58;;;;;;;;;;4943615;28;91581;-80
2022/03/03 00:22:27;;;;;;;36.05;20.60;;;;;;;;;;4959518;28;92593;-81
2022/03/03 00:24:54;;;;;;;34.30;20.10;;;;;;;;;;4962634;28;92802;-78
2022/03/03 00:27:20;;;;;;;30.88;19.33;;;;;;;;;;4959540;28;93168;-79
2022/03/03 00:29:47;;;;;;;28.95;19.10;;;;;;;;;;4960115;28;90095;-80
2022/03/03 00:32:13;;;;;;;29.90;18.50;;;;;;;;;;4943381;28;91247;-79
2022/03/03 00:34:40;;;;;;;32.33;18.63;;;;;;;;;;4960463;28;91856;-78
2022/03/03 00:37:07;;;;;;;32.65;18.60;;;;;;;;;;4961365;28;91939;-79
2022/03/03 00:39:33;;;;;;;29.92;18.85;;;;;;;;;;4961686;28;91018;-77
2022/03/03 00:42:00;;;;;;;29.10;18.27;;;;;;;;;;4960979;28;92974;-77
2022/03/03 00:44:26;;;;;;;31.48;19.35;;;;;;;;;;4961790;28;89574;-79
2022/03/03 00:46:53;;;;;;;30.70;18.75;;;;;;;;;;4963438;28;91116;-78
2022/03/03 00:49:19;;;;;;;30.42;19.05;;;;;;;;;;4959800;28;89266;-79
2022/03/03 00:51:46;;;;;;;33.17;18.95;;;;;;;;;;4959827;28;88898;-78
2022/03/03 00:54:13;;;;;;;33.88;19.88;;;;;;;;;;4960680;28;88956;-80
2022/03/03 00:56:40;;;;;;;32.05;19.45;;;;;;;;;;4943251;28;91783;-79
2022/03/03 00:59:07;;;;;;;33.03;19.35;;;;;;;;;;4959348;28;91393;-78
2022/03/03 01:01:37;;;;;;;35.75;20.08;;;;;;;;;;4959685;28;90192;-81
2022/03/03 01:04:05;;;;;;;30.30;19.48;;;;;;;;;;4959244;28;92478;-81
2022/03/03 01:06:34;;;;;;;36.53;20.38;;;;;;;;;;4961421;28;91675;-77
2022/03/03 01:09:00;;;;;;;35.92;19.90;;;;;;;;;;4972340;28;89702;-76
2022/03/03 01:11:27;;;;;;;38.47;20.55;;;;;;;;;;4964441;28;90847;-79
2022/03/03 01:13:53;;;;;;;33.75;20.60;;;;;;;;;;4958779;28;91526;-80
2022/03/03 01:16:20;;;;;;;38.30;21.70;;;;;;;;;;4959075;28;92593;-81
2022/03/03 01:18:46;;;;;;;35.13;20.35;;;;;;;;;;4960503;28;89002;-80
2022/03/03 01:21:12;;;;;;;36.58;20.33;;;;;;;;;;4958296;28;92787;-79
2022/03/03 01:23:40;;;;;;;34.90;20.73;;;;;;;;;;4958461;28;91671;-77
2022/03/03 01:26:08;;;;;;;36.35;20.40;;;;;;;;;;4958849;28;90444;-78
2022/03/03 01:28:34;;;;;;;31.33;19.65;;;;;;;;;;4959654;28;89898;-80
2022/03/03 01:31:01;;;;;;;32.15;19.50;;;;;;;;;;4961908;28;89351;-80
2022/03/03 01:33:27;;;;;;;37.10;20.13;;;;;;;;;;4958958;28;92625;-79
2022/03/03 01:35:53;;;;;;;32.30;19.63;;;;;;;;;;4958696;28;91800;-78
2022/03/03 01:38:20;;;;;;;31.58;19.52;;;;;;;;;;4958573;28;91847;-79
2022/03/03 01:40:46;;;;;;;31.00;19.45;;;;;;;;;;4942637;28;93047;-82
2022/03/03 01:43:13;;;;;;;31.88;19.23;;;;;;;;;;4958429;28;92130;-78
2022/03/03 01:45:39;;;;;;;36.35;20.75;;;;;;;;;;4960231;28;88871;-79
2022/03/03 01:48:06;;;;;;;34.35;19.65;;;;;;;;;;4958914;28;93177;-78
2022/03/03 01:50:32;;;;;;;32.03;19.23;;;;;;;;;;4958854;28;89669;-80
2022/03/03 01:52:59;;;;;;;34.42;20.67;;;;;;;;;;4961487;28;90703;-79
2022/03/03 01:55:25;;;;;;;32.47;19.85;;;;;;;;;;4942307;28;91149;-80
2022/03/03 01:57:52;;;;;;;32.75;19.90;;;;;;;;;;4942139;28;91837;-80
2022/03/03 02:00:18;;;;;;;33.10;19.88;;;;;;;;;;4957941;28;91484;-78
2022/03/03 02:02:46;;;;;;;33.70;19.23;;;;;;;;;;4942323;28;92503;-81
2022/03/03 02:05:14;;;;;;;32.75;20.52;;;;;;;;;;4958181;28;92441;-77
2022/03/03 02:07:40;;;;;;;31.50;19.45;;;;;;;;;;4941901;28;92938;-79
2022/03/03 02:10:07;;;;;;;35.95;20.05;;;;;;;;;;4958186;28;89472;-79
2022/03/03 02:12:34;;;;;;;31.63;18.20;;;;;;;;;;4961090;28;91616;-80
2022/03/03 02:15:00;;;;;;;31.45;18.80;;;;;;;;;;4958144;28;93186;-81
2022/03/03 02:17:27;;;;;;;38.42;19.63;;;;;;;;;;4961405;28;88747;-81
2022/03/03 02:19:54;;;;;;;34.95;20.05;;;;;;;;;;4945314;28;91562;-78
2022/03/03 02:22:20;;;;;;;36.47;18.73;;;;;;;;;;4945208;28;92179;-81
2022/03/03 02:24:47;;;;;;;35.22;19.92;;;;;;;;;;4961377;28;92282;-80
2022/03/03 02:27:15;;;;;;;35.63;19.25;;;;;;;;;;4961346;28;91956;-79
2022/03/03 02:29:41;;;;;;;34.50;19.30;;;;;;;;;;4961539;28;92188;-79
2022/03/03 02:32:08;;;;;;;31.67;19.38;;;;;;;;;;4961629;28;91746;-78
2022/03/03 02:34:35;;;;;;;33.95;19.90;;;;;;;;;;4962486;28;92199;-84
2022/03/03 02:37:02;;;;;;;33.45;20.15;;;;;;;;;;4960218;28;91806;-77
2022/03/03 02:39:28;;;;;;;32.10;19.58;;;;;;;;;;4960287;28;93339;-78
2022/03/03 02:41:55;;;;;;;37.63;19.80;;;;;;;;;;4960735;28;91690;-79
2022/03/03 02:44:21;;;;;;;32.72;20.75;;;;;;;;;;4943615;28;91973;-78
2022/03/03 02:46:48;;;;;;;34.55;20.42;;;;;;;;;;4960380;28;92621;-79
2022/03/03 02:49:14;;;;;;;37.45;21.40;;;;;;;;;;4959626;28;91428;-80
2022/03/03 02:51:41;;;;;;;29.42;18.67;;;;;;;;;;4960723;28;91070;-83
2022/03/03 02:54:08;;;;;;;41.08;20.67;;;;;;;;;;4945549;28;92901;-80
2022/03/03 02:59:30;;;;;;;35.63;19.25;;;;;;;;;;4943271;28;93256;-80
2022/03/03 03:01:56;;;;;;;34.13;19.58;;;;;;;;;;4943552;28;92129;-81
2022/03/03 03:04:27;;;;;;;36.90;20.02;;;;;;;;;;4925416;28;95720;-78
2022/03/03 03:07:04;;;;;;;36.10;20.08;;;;;;;;;;4958877;28;92819;-80
2022/03/03 03:09:31;;;;;;;36.35;19.67;;;;;;;;;;4958497;28;95437;-79
2022/03/03 03:11:57;;;;;;;40.85;21.30;;;;;;;;;;4960345;28;95185;-80
2022/03/03 03:14:37;;;;;;;35.17;20.40;;;;;;;;;;4949343;28;94749;-80
2022/03/03 03:17:09;;;;;;;41.17;20.23;;;;;;;;;;4962400;28;97988;-81
2022/03/03 03:19:41;;;;;;;38.17;19.73;;;;;;;;;;4947368;28;96596;-81
2022/03/03 03:22:16;;;;;;;30.52;18.88;;;;;;;;;;4945436;28;95804;-78
2022/03/03 03:24:50;;;;;;;33.67;19.10;;;;;;;;;;4960236;28;96306;-79
2022/03/03 03:27:29;;;;;;;34.70;19.52;;;;;;;;;;4960712;28;92853;-80
2022/03/03 03:30:03;;;;;;;32.70;19.38;;;;;;;;;;4959553;28;95382;-79
2022/03/03 03:32:30;;;;;;;38.47;20.55;;;;;;;;;;4958068;28;95441;-78
2022/03/03 03:35:07;;;;;;;31.52;19.40;;;;;;;;;;4941926;28;93347;-77
2022/03/03 03:37:47;;;;;;;33.70;19.33;;;;;;;;;;4942837;28;95269;-79
2022/03/03 03:40:25;;;;;;;34.33;19.83;;;;;;;;;;4940184;28;98644;-80
2022/03/03 03:43:08;;;;;;;36.25;20.17;;;;;;;;;;4960147;28;93256;-81
2022/03/03 03:58:50;;;;;;;35.83;18.42;;;;;;;;;;4898318;28;92532;-83
2022/03/03 04:02:08;;;;;;;35.47;18.17;;;;;;;;;;4791857;29;93026;-80
2022/03/03 04:05:58;;;;;;;31.15;18.23;;;;;;;;;;4798400;29;93687;-81
2022/03/03 04:09:48;;;;;;;34.05;19.20;;;;;;;;;;4788870;29;94367;-82
2022/03/03 04:13:06;;;;;;;36.45;19.08;;;;;;;;;;4804106;29;92609;-82
2022/03/03 04:16:32;;;;;;;34.58;17.98;;;;;;;;;;4848080;28;96723;-81
2022/03/03 04:19:21;;;;;;;34.05;18.80;;;;;;;;;;4816440;29;93451;-81
2022/03/03 04:22:04;;;;;;;38.28;18.95;;;;;;;;;;4825728;29;95277;-80
2022/03/03 04:24:41;;;;;;;35.55;18.40;;;;;;;;;;4825785;29;96548;-81
2022/03/03 04:27:21;;;;;;;32.35;18.45;;;;;;;;;;4810824;29;92881;-82
2022/03/03 04:29:52;;;;;;;34.35;19.45;;;;;;;;;;4824460;28;95898;-82
2022/03/03 04:32:29;;;;;;;34.90;19.85;;;;;;;;;;4921837;28;96977;-84
2022/03/03 04:35:01;;;;;;;34.05;19.30;;;;;;;;;;4956780;28;92664;-82
2022/03/03 04:37:34;;;;;;;38.85;20.33;;;;;;;;;;4960245;28;94671;-84
2022/03/03 04:40:06;;;;;;;33.05;19.52;;;;;;;;;;4940944;28;92310;-82
2022/03/03 04:42:36;;;;;;;37.58;20.65;;;;;;;;;;4955675;28;96035;-82
2022/03/03 04:45:06;;;;;;;35.78;18.27;;;;;;;;;;4956791;28;95091;-81
2022/03/03 04:47:39;;;;;;;35.10;19.45;;;;;;;;;;4956946;28;93084;-83
2022/03/03 04:50:06;;;;;;;30.25;18.55;;;;;;;;;;4940998;28;95014;-83
2022/03/03 04:52:45;;;;;;;31.33;18.75;;;;;;;;;;4941452;28;95672;-81
2022/03/03 04:55:15;;;;;;;33.65;19.63;;;;;;;;;;4957129;28;92420;-80
2022/03/03 04:57:47;;;;;;;38.63;20.35;;;;;;;;;;4940810;28;95140;-83
2022/03/03 05:00:14;;;;;;;31.88;19.33;;;;;;;;;;4960215;28;95062;-82
2022/03/03 05:02:52;;;;;;;35.25;19.42;;;;;;;;;;4956611;28;94807;-81
2022/03/03 05:05:25;;;;;;;33.72;20.20;;;;;;;;;;4940953;28;95459;-83
2022/03/03 05:08:07;;;;;;;39.45;20.02;;;;;;;;;;4972304;28;94841;-80
2022/03/03 05:10:45;;;;;;;44.60;21.33;;;;;;;;;;4945351;28;98079;-80
2022/03/03 05:13:17;;;;;;;34.92;19.65;;;;;;;;;;4944857;28;95526;-80
2022/03/03 05:16:00;;;;;;;38.05;19.52;;;;;;;;;;4947068;28;92369;-81
2022/03/03 05:18:26;;;;;;;35.35;19.42;;;;;;;;;;4945346;28;94840;-80
2022/03/03 05:21:05;;;;;;;33.65;20.08;;;;;;;;;;4956185;28;94796;-80
2022/03/03 05:23:40;;;;;;;37.05;20.10;;;;;;;;;;4953794;28;92301;-79
2022/03/03 05:26:10;;;;;;;35.10;19.42;;;;;;;;;;4945094;28;95602;-81
2022/03/03 05:28:43;;;;;;;33.00;19.48;;;;;;;;;;4941977;28;92640;-82
2022/03/03 05:31:20;;;;;;;33.13;19.38;;;;;;;;;;4943502;28;94758;-81
2022/03/03 05:33:49;;;;;;;32.67;19.33;;;;;;;;;;4953967;28;96903;-84
2022/03/03 05:36:29;;;;;;;35.42;19.63;;;;;;;;;;4925196;28;92368;-81
2022/03/03 05:38:58;;;;;;;35.75;19.55;;;;;;;;;;4946927;28;95836;-81
2022/03/03 05:41:32;;;;;;;37.90;19.85;;;;;;;;;;4940162;28;94300;-85
2022/03/03 05:44:06;;;;;;;38.78;19.08;;;;;;;;;;4939773;28;92882;-81
2022/03/03 05:46:43;;;;;;;33.85;19.40;;;;;;;;;;4943139;28;95239;-82
2022/03/03 05:49:13;;;;;;;30.50;18.60;;;;;;;;;;4940085;28;92467;-80
2022/03/03 05:51:41;;;;;;;35.70;19.30;;;;;;;;;;4940080;28;94188;-82
2022/03/03 05:54:10;;;;;;;31.45;18.27;;;;;;;;;;4956011;28;93516;-79
2022/03/03 05:56:44;;;;;;;44.42;20.50;;;;;;;;;;4955828;28;92327;-82
2022/03/03 05:59:21;;;;;;;37.92;19.92;;;;;;;;;;4954656;28;94811;-83
2022/03/03 06:01:49;;;;;;;39.50;19.42;;;;;;;;;;4937803;28;95373;-82
2022/03/03 06:04:27;;;;;;;33.83;19.07;;;;;;;;;;4939136;28;92507;-83
2022/03/03 06:07:01;;;;;;;37.33;19.85;;;;;;;;;;4922365;28;96061;-79
2022/03/03 06:09:36;;;;;;;46.75;20.70;;;;;;;;;;4926506;28;95891;-83
2022/03/03 06:12:20;;;;;;;52.80;21.13;;;;;;;;;;4924287;28;97227;-80
2022/03/03 06:15:04;;;;;;;56.50;23.83;;;;;;;;;;4922720;28;96008;-81
2022/03/03 06:17:34;;;;;;;51.25;21.13;;;;;;;;;;4939437;28;91713;-79
2022/03/03 06:20:05;;;;;;;53.22;21.60;;;;;;;;;;4939029;28;95113;-80
2022/03/03 06:22:32;;;;;;;53.90;21.55;;;;;;;;;;4925835;28;96155;-79
2022/03/03 06:24:58;;;;;;;41.20;20.48;;;;;;;;;;4956421;28;94981;-82
2022/03/03 06:27:35;;;;;;;45.60;20.30;;;;;;;;;;4922787;28;98521;-77
2022/03/03 06:30:20;;;;;;;40.72;20.50;;;;;;;;;;4937190;28;95235;-77
2022/03/03 06:32:48;;;;;;;44.15;21.52;;;;;;;;;;4934777;28;92358;-82
2022/03/03 06:35:16;;;;;;;43.15;20.88;;;;;;;;;;4918279;28;96227;-80
2022/03/03 06:37:43;;;;;;;41.60;21.50;;;;;;;;;;4934978;28;92844;-77
2022/03/03 06:40:10;;;;;;;38.70;21.38;;;;;;;;;;4919052;28;93968;-79
2022/03/03 06:42:36;;;;;;;50.10;21.80;;;;;;;;;;4903308;28;95252;-79
2022/03/03 06:45:03;;;;;;;46.67;21.73;;;;;;;;;;4935640;28;92277;-79
2022/03/03 06:47:29;;;;;;;47.65;23.75;;;;;;;;;;4919120;28;94249;-78
2022/03/03 06:49:56;;;;;;;43.53;22.48;;;;;;;;;;4933383;28;98291;-80
2022/03/03 06:52:26;;;;;;;49.60;23.65;;;;;;;;;;4935525;28;93000;-79
2022/03/03 06:54:53;;;;;;;40.28;22.15;;;;;;;;;;4918509;28;96509;-79
2022/03/03 06:57:20;;;;;;;53.20;24.20;;;;;;;;;;4918309;28;93464;-78
2022/03/03 06:59:51;;;;;;;54.15;23.23;;;;;;;;;;4935044;28;93301;-80
2022/03/03 07:02:18;;;;;;;46.93;22.03;;;;;;;;;;4918587;28;93038;-79
2022/03/03 07:04:48;;;;;;;48.80;22.67;;;;;;;;;;4951223;28;92288;-78
2022/03/03 07:07:14;;;;;;;44.50;22.20;;;;;;;;;;4959902;28;93246;-78
2022/03/03 07:09:41;;;;;;;37.70;21.25;;;;;;;;;;4958085;28;97520;-77
2022/03/03 07:12:08;;;;;;;40.65;21.75;;;;;;;;;;4958282;28;93734;-80
2022/03/03 07:14:36;;;;;;;41.45;21.70;;;;;;;;;;4960705;28;94659;-78
2022/03/03 07:17:04;;;;;;;49.55;23.55;;;;;;;;;;4957921;28;92301;-76
2022/03/03 07:19:37;;;;;;;44.88;22.33;;;;;;;;;;4957909;28;96211;-76
2022/03/03 07:22:19;;;;;;;45.65;22.30;;;;;;;;;;4958790;28;94584;-79
2022/03/03 07:24:51;;;;;;;41.63;22.63;;;;;;;;;;4960246;28;92210;-75
2022/03/03 07:27:18;;;;;;;;;;;;;;;;;;4961248;28;92804;-77
2022/03/03 07:29:46;;;;;;;50.40;21.70;;;;;;;;;;4958739;28;122980;-75
2022/03/03 07:32:16;;;;;;;46.00;21.65;;;;;;;;;;4960095;28;91552;-77
2022/03/03 07:34:47;;;;;;;44.28;22.27;;;;;;;;;;4958238;28;94067;-77
2022/03/03 07:37:16;;;;;;;43.13;23.08;;;;;;;;;;4961734;28;93281;-79
2022/03/03 07:39:43;;;;;;;51.22;22.88;;;;;;;;;;4956827;28;94757;-76
2022/03/03 07:42:15;;;;;;;37.95;22.45;;;;;;;;;;4958685;28;93181;-80
2022/03/03 07:44:41;;;;;;;39.42;22.40;;;;;;;;;;4958981;28;92192;-77
2022/03/03 07:47:08;;;;;;;39.67;22.95;;;;;;;;;;4957923;28;93432;-77
2022/03/03 07:49:35;;;;;;;46.00;23.13;;;;;;;;;;4940197;28;92779;-80
2022/03/03 07:52:03;;;;;;;37.20;22.67;;;;;;;;;;4955453;28;92297;-79
2022/03/03 07:54:29;;;;;;;47.50;26.63;;;;;;;;;;4958697;28;92109;-77
2022/03/03 07:56:56;;;;;;;43.58;23.55;;;;;;;;;;4958190;28;92335;-77
2022/03/03 07:59:35;;;;;;;34.72;21.60;;;;;;;;;;4944478;28;92938;-80
2022/03/03 08:02:03;;;;;;;35.83;20.92;;;;;;;;;;4958845;28;93135;-78
2022/03/03 08:04:30;;;;;;;33.50;21.40;;;;;;;;;;4955902;28;94590;-79
2022/03/03 08:07:07;;;;;;;30.50;20.65;;;;;;;;;;4957457;28;97489;-78
2022/03/03 08:09:34;;;;;;;33.35;21.05;;;;;;;;;;4958512;28;92911;-80
2022/03/03 08:12:03;;;;;;;33.00;19.92;;;;;;;;;;4957814;28;92267;-78
2022/03/03 08:14:30;;;;;;;33.67;20.13;;;;;;;;;;4957587;28;93034;-77
2022/03/03 08:16:56;;;;;;;35.90;20.63;;;;;;;;;;4957423;28;93053;-77
2022/03/03 08:19:24;;;;;;;31.13;19.70;;;;;;;;;;4958503;28;92293;-78
2022/03/03 08:21:51;;;;;;;33.80;20.05;;;;;;;;;;4960601;28;95560;-80
2022/03/03 08:24:19;;;;;;;32.92;19.98;;;;;;;;;;4957775;28;92924;-78
2022/03/03 08:26:46;;;;;;;35.72;20.15;;;;;;;;;;4941132;28;94143;-79
2022/03/03 08:29:13;;;;;;;33.65;21.10;;;;;;;;;;4955249;28;96414;-78
2022/03/03 08:31:41;;;;;;;33.40;20.85;;;;;;;;;;4958810;28;92240;-78
2022/03/03 08:34:16;;;;;;;38.22;21.30;;;;;;;;;;4957966;28;94212;-79
2022/03/03 08:36:56;;;;;;;35.53;22.38;;;;;;;;;;4957504;28;94008;-76
2022/03/03 08:39:27;;;;;;;32.38;19.95;;;;;;;;;;4956365;28;92832;-76
2022/03/03 08:41:58;;;;;;;28.70;19.73;;;;;;;;;;4960407;28;93958;-77
2022/03/03 08:44:45;;;;;;;33.58;20.55;;;;;;;;;;4956891;28;92602;-76
2022/03/03 08:47:15;;;;;;;32.42;19.38;;;;;;;;;;4957703;28;92532;-77
2022/03/03 08:49:43;;;;;;;28.55;20.10;;;;;;;;;;4957030;28;93567;-76
2022/03/03 08:52:11;;;;;;;34.00;20.92;;;;;;;;;;4957474;28;93525;-77
2022/03/03 08:54:37;;;;;;;33.97;20.77;;;;;;;;;;4955920;28;94702;-76
2022/03/03 08:57:04;;;;;;;28.52;20.95;;;;;;;;;;4957725;28;94025;-76
2022/03/03 08:59:30;;;;;;;29.85;20.15;;;;;;;;;;4959037;28;92586;-76
2022/03/03 09:01:57;;;;;;;31.95;20.83;;;;;;;;;;4957207;28;93400;-76
2022/03/03 09:04:23;;;;;;;30.73;19.55;;;;;;;;;;4960159;28;92737;-77
2022/03/03 09:06:50;;;;;;;33.97;21.55;;;;;;;;;;4957151;28;93389;-77
2022/03/03 09:09:16;;;;;;;33.15;20.20;;;;;;;;;;4956732;28;92967;-76
2022/03/03 09:11:43;;;;;;;29.35;20.17;;;;;;;;;;4957046;28;91553;-77
2022/03/03 09:14:11;;;;;;;26.92;19.80;;;;;;;;;;4957031;28;93266;-77
2022/03/03 09:16:37;;;;;;;30.35;19.67;;;;;;;;;;4960759;28;94017;-77
2022/03/03 09:19:04;;;;;;;32.35;20.27;;;;;;;;;;4957850;28;94819;-78
2022/03/03 09:21:30;;;;;;;26.08;19.63;;;;;;;;;;4946245;28;95459;-75
2022/03/03 09:23:56;;;;;;;32.17;19.58;;;;;;;;;;4961050;28;93024;-76
2022/03/03 09:26:23;;;;;;;29.17;19.20;;;;;;;;;;4958434;28;92299;-75
2022/03/03 09:28:49;;;;;;;27.25;20.08;;;;;;;;;;4968681;28;92978;-74
2022/03/03 09:31:16;;;;;;;28.10;18.98;;;;;;;;;;4958312;28;93044;-76
2022/03/03 09:33:43;;;;;;;27.90;17.67;;;;;;;;;;4956487;28;94556;-74
2022/03/03 09:36:09;;;;;;;28.45;18.40;;;;;;;;;;4956967;28;93072;-76
2022/03/03 09:38:36;;;;;;;28.55;18.70;;;;;;;;;;4956639;28;92222;-78
2022/03/03 09:41:07;;;;;;;;;;;;;;;;;;4956848;28;92920;-76
2022/03/03 09:43:33;;;;;;;24.88;18.08;;;;;;;;;;4954733;28;125190;-78
2022/03/03 09:46:00;;;;;;;25.67;17.40;;;;;;;;;;4956412;28;92459;-79
2022/03/03 09:48:27;;;;;;;27.90;18.25;;;;;;;;;;4960214;28;92221;-79
2022/03/03 09:50:54;;;;;;;25.20;18.73;;;;;;;;;;4955028;28;92323;-78
2022/03/03 09:53:20;;;;;;;28.00;17.75;;;;;;;;;;4954947;28;93674;-77
2022/03/03 09:55:47;;;;;;;22.67;17.48;;;;;;;;;;4956102;28;93601;-76
2022/03/03 09:58:13;;;;;;;28.77;17.77;;;;;;;;;;4957795;28;92344;-77
2022/03/03 10:00:41;;;;;;;26.02;18.30;;;;;;;;;;4956917;28;93702;-79
2022/03/03 10:03:13;;;;;;;25.25;17.67;;;;;;;;;;4956256;28;93586;-77
2022/03/03 10:05:40;;;;;;;23.40;17.63;;;;;;;;;;4956411;28;92470;-75
2022/03/03 10:08:08;;;;;;;24.70;17.77;;;;;;;;;;4952694;28;94822;-75
2022/03/03 10:10:35;;;;;;;27.65;17.67;;;;;;;;;;4958261;28;93658;-77
2022/03/03 10:13:03;;;;;;;23.00;17.20;;;;;;;;;;4956057;28;93045;-77
2022/03/03 10:15:30;;;;;;;28.25;18.42;;;;;;;;;;4956194;28;93198;-77
2022/03/03 10:17:58;;;;;;;28.60;17.88;;;;;;;;;;4954469;28;92356;-78
2022/03/03 10:20:24;;;;;;;30.15;19.27;;;;;;;;;;4955182;28;93457;-78
2022/03/03 10:22:57;;;;;;;26.63;18.08;;;;;;;;;;4955582;28;93619;-75
2022/03/03 10:25:28;;;;;;;27.92;18.83;;;;;;;;;;4956317;28;92501;-75
2022/03/03 10:27:54;;;;;;;24.08;17.73;;;;;;;;;;4958858;28;93076;-76
2022/03/03 10:30:21;;;;;;;22.45;16.48;;;;;;;;;;4955308;28;95088;-76
2022/03/03 10:32:48;;;;;;;24.52;15.93;;;;;;;;;;4957313;28;94660;-75
2022/03/03 10:35:18;;;;;;;21.83;15.45;;;;;;;;;;4955667;28;93086;-75
2022/03/03 10:37:45;;;;;;;22.23;16.00;;;;;;;;;;4956138;28;93612;-77
2022/03/03 10:40:13;;;;;;;21.02;16.20;;;;;;;;;;4959193;28;92800;-77
2022/03/03 10:42:44;;;;;;;22.38;16.60;;;;;;;;;;4958188;28;93953;-74
2022/03/03 10:45:16;;;;;;;21.45;16.13;;;;;;;;;;4958705;28;92920;-75
2022/03/03 10:47:57;;;;;;;23.40;15.52;;;;;;;;;;4961923;28;94783;-74
2022/03/03 10:50:24;;;;;;;25.23;17.23;;;;;;;;;;4959595;28;92837;-74
2022/03/03 10:52:50;;;;;;;25.35;16.48;;;;;;;;;;4961814;28;92360;-74
2022/03/03 10:55:17;;;;;;;22.52;17.02;;;;;;;;;;4958956;28;93031;-74
2022/03/03 10:57:51;;;;;;;21.23;16.80;;;;;;;;;;4957334;28;95979;-75
2022/03/03 11:00:19;;;;;;;21.73;15.57;;;;;;;;;;4958215;28;95786;-75
2022/03/03 11:02:46;;;;;;;21.23;16.70;;;;;;;;;;4960902;28;93591;-76
2022/03/03 11:05:13;;;;;;;19.23;15.63;;;;;;;;;;4960493;28;92265;-74
2022/03/03 11:07:41;;;;;;;19.25;15.25;;;;;;;;;;4957473;28;93308;-75
2022/03/03 11:10:09;;;;;;;22.25;16.08;;;;;;;;;;4957789;28;93735;-75
2022/03/03 11:12:35;;;;;;;18.83;14.85;;;;;;;;;;4958512;28;92370;-74
2022/03/03 11:15:03;;;;;;;17.58;13.73;;;;;;;;;;4961750;28;93484;-76
2022/03/03 11:17:30;;;;;;;17.73;13.57;;;;;;;;;;4959464;28;92328;-74
2022/03/03 11:19:59;;;;;;;18.90;14.23;;;;;;;;;;4958642;28;92836;-75
2022/03/03 11:22:30;;;;;;;17.80;14.43;;;;;;;;;;4956592;28;96684;-73
2022/03/03 11:24:58;;;;;;;16.90;14.18;;;;;;;;;;4957594;28;93244;-75
2022/03/03 11:27:38;;;;;;;19.45;13.77;;;;;;;;;;4959127;28;94858;-77
2022/03/03 11:30:18;;;;;;;16.40;13.35;;;;;;;;;;4968583;28;93555;-76
2022/03/03 11:32:45;;;;;;;19.70;13.85;;;;;;;;;;4960733;28;92442;-79
2022/03/03 11:35:15;;;;;;;17.33;14.05;;;;;;;;;;4958626;28;92862;-81
2022/03/03 11:37:45;;;;;;;15.00;13.00;;;;;;;;;;4962413;28;92427;-79
2022/03/03 11:40:16;;;;;;;15.10;12.55;;;;;;;;;;4959294;28;93446;-79
2022/03/03 11:42:53;;;;;;;15.43;11.90;;;;;;;;;;4957664;28;93033;-78
2022/03/03 11:45:29;;;;;;;15.20;12.40;;;;;;;;;;4957943;28;92453;-78
2022/03/03 11:48:22;;;;;;;16.98;12.48;;;;;;;;;;4958280;28;94756;-79
2022/03/03 11:50:54;;;;;;;16.00;11.68;;;;;;;;;;4956683;28;94291;-86
2022/03/03 11:53:24;;;;;;;17.88;12.85;;;;;;;;;;4956962;28;94145;-76
2022/03/03 11:55:56;;;;;;;15.48;12.80;;;;;;;;;;4960285;28;94128;-78
2022/03/03 11:58:53;;;;;;;14.55;12.43;;;;;;;;;;4960768;28;93459;-78
2022/03/03 12:01:20;;;;;;;16.38;13.15;;;;;;;;;;4964040;28;92430;-78
2022/03/03 12:04:02;;;;;;;15.50;12.80;;;;;;;;;;4958011;28;92852;-78
2022/03/03 12:06:43;;;;;;;16.48;12.52;;;;;;;;;;4958391;28;91557;-79
2022/03/03 12:09:18;;;;;;;16.75;13.38;;;;;;;;;;4960586;28;92476;-81
2022/03/03 12:11:45;;;;;;;15.32;12.25;;;;;;;;;;4957698;28;93218;-75
2022/03/03 12:14:32;;;;;;;27.70;14.52;;;;;;;;;;4956529;28;96139;-78
2022/03/03 12:17:20;;;;;;;15.88;13.05;;;;;;;;;;4957868;28;95660;-77
2022/03/03 12:19:47;;;;;;;15.93;13.23;;;;;;;;;;4968640;28;93890;-76
2022/03/03 12:22:24;;;;;;;15.75;13.15;;;;;;;;;;4958287;28;92214;-78
2022/03/03 12:24:50;;;;;;;16.45;13.23;;;;;;;;;;4959509;28;94165;-75
2022/03/03 12:27:17;;;;;;;15.52;13.05;;;;;;;;;;4957665;28;92428;-79
2022/03/03 12:29:48;;;;;;;18.58;13.40;;;;;;;;;;4957434;28;92694;-78
2022/03/03 12:32:35;;;;;;;15.45;13.10;;;;;;;;;;4958280;28;92732;-75
2022/03/03 12:35:20;;;;;;;17.48;12.68;;;;;;;;;;4957437;28;92292;-75
2022/03/03 12:37:46;;;;;;;17.20;13.38;;;;;;;;;;4958100;28;93393;-74
2022/03/03 12:40:19;;;;;;;16.55;13.52;;;;;;;;;;4955809;28;96014;-75
2022/03/03 12:42:46;;;;;;;15.68;13.57;;;;;;;;;;4957975;28;93147;-75
2022/03/03 12:45:14;;;;;;;18.23;14.20;;;;;;;;;;4957285;28;92817;-76
2022/03/03 12:47:46;;;;;;;19.52;13.80;;;;;;;;;;4960792;28;93642;-75
2022/03/03 12:50:14;;;;;;;16.10;13.73;;;;;;;;;;4957101;28;92688;-76
2022/03/03 12:52:52;;;;;;;18.70;14.80;;;;;;;;;;4957185;28;92586;-75
2022/03/03 12:55:19;;;;;;;17.65;14.25;;;;;;;;;;4957056;28;93079;-76
2022/03/03 12:57:45;;;;;;;20.50;14.77;;;;;;;;;;4958587;28;93803;-76
2022/03/03 13:00:12;;;;;;;16.80;14.43;;;;;;;;;;4956794;28;93618;-76
2022/03/03 13:02:52;;;;;;;19.80;15.85;;;;;;;;;;4955918;28;92234;-74
2022/03/03 13:05:33;;;;;;;16.88;14.50;;;;;;;;;;4955153;28;94826;-76
2022/03/03 13:08:01;;;;;;;18.60;14.90;;;;;;;;;;4961262;28;93368;-77
2022/03/03 13:10:31;;;;;;;16.02;14.18;;;;;;;;;;4956771;28;92861;-76
2022/03/03 13:12:57;;;;;;;19.38;14.70;;;;;;;;;;4956026;28;92964;-77
2022/03/03 13:15:28;;;;;;;23.38;16.50;;;;;;;;;;4956784;28;94178;-76
2022/03/03 13:17:58;;;;;;;17.40;14.13;;;;;;;;;;4956070;28;93707;-76
2022/03/03 13:20:25;;;;;;;18.73;14.88;;;;;;;;;;4955337;28;96147;-76
2022/03/03 13:22:51;;;;;;;18.77;15.20;;;;;;;;;;4956878;28;91594;-76
2022/03/03 13:25:18;;;;;;;17.65;14.60;;;;;;;;;;4956704;28;92715;-76
2022/03/03 13:27:45;;;;;;;21.92;14.93;;;;;;;;;;4956364;28;93023;-76
2022/03/03 13:30:12;;;;;;;19.33;15.15;;;;;;;;;;4960246;28;94654;-76
2022/03/03 13:32:42;;;;;;;18.10;14.80;;;;;;;;;;4959263;28;93689;-77
2022/03/03 13:35:09;;;;;;;18.17;14.90;;;;;;;;;;4972065;28;92506;-78
2022/03/03 13:37:35;;;;;;;17.48;14.32;;;;;;;;;;4959380;28;92981;-78
2022/03/03 13:40:11;;;;;;;17.73;14.63;;;;;;;;;;4955391;28;94672;-74
2022/03/03 13:42:38;;;;;;;17.92;14.80;;;;;;;;;;4956662;28;92237;-74
2022/03/03 13:45:10;;;;;;;17.05;14.68;;;;;;;;;;4955690;28;93648;-72
2022/03/03 13:47:42;;;;;;;18.20;13.98;;;;;;;;;;4956606;28;93034;-72
2022/03/03 13:50:08;;;;;;;;;;;;;;;;;;4956836;28;92316;-73
2022/03/03 13:52:35;;;;;;;16.35;14.63;;;;;;;;;;4959220;28;122384;-72
2022/03/03 13:55:07;;;;;;;19.95;14.82;;;;;;;;;;4953998;28;95557;-75
2022/03/03 13:57:35;;;;;;;20.25;14.80;;;;;;;;;;4955456;28;97183;-75
2022/03/03 14:00:06;;;;;;;21.70;15.60;;;;;;;;;;4956194;28;93163;-74
2022/03/03 14:02:32;;;;;;;17.00;14.57;;;;;;;;;;4956595;28;92395;-75
2022/03/03 14:05:01;;;;;;;20.40;15.02;;;;;;;;;;4956165;28;93898;-75
2022/03/03 14:07:31;;;;;;;16.48;14.48;;;;;;;;;;4954662;28;94693;-75
2022/03/03 14:09:59;;;;;;;18.05;14.60;;;;;;;;;;4955530;28;92324;-76
2022/03/03 14:12:25;;;;;;;17.13;14.35;;;;;;;;;;4956061;28;93371;-75
2022/03/03 14:14:52;;;;;;;18.45;15.65;;;;;;;;;;4962530;28;93556;-76
2022/03/03 14:17:18;;;;;;;20.23;16.27;;;;;;;;;;4959219;28;92444;-78
2022/03/03 14:19:46;;;;;;;19.75;14.50;;;;;;;;;;4957747;28;95519;-76
2022/03/03 14:22:20;;;;;;;17.15;14.20;;;;;;;;;;4960003;28;92412;-76
2022/03/03 14:24:47;;;;;;;16.77;14.50;;;;;;;;;;4959406;28;93786;-75
2022/03/03 14:27:14;;;;;;;18.52;15.13;;;;;;;;;;4958632;28;94919;-76
2022/03/03 14:29:41;;;;;;;18.90;14.43;;;;;;;;;;4960017;28;92251;-76
2022/03/03 14:32:07;;;;;;;17.48;14.32;;;;;;;;;;4958628;28;95195;-77
2022/03/03 14:34:34;;;;;;;18.38;14.88;;;;;;;;;;4959821;28;93592;-75
2022/03/03 14:37:01;;;;;;;20.08;15.40;;;;;;;;;;4962277;28;91605;-75
2022/03/03 14:39:27;;;;;;;15.40;13.80;;;;;;;;;;4959234;28;94150;-75
2022/03/03 14:41:54;;;;;;;18.08;13.07;;;;;;;;;;4958603;28;92304;-75
2022/03/03 14:44:20;;;;;;;22.58;14.07;;;;;;;;;;4956844;28;95810;-75
2022/03/03 14:46:47;;;;;;;17.67;14.20;;;;;;;;;;4959703;28;93544;-75
2022/03/03 14:49:13;;;;;;;16.98;14.07;;;;;;;;;;4959542;28;92344;-75
2022/03/03 14:51:41;;;;;;;18.70;13.65;;;;;;;;;;4959361;28;93806;-75
2022/03/03 14:54:08;;;;;;;16.63;13.65;;;;;;;;;;4959277;28;93676;-75